createdAt,value
2018-10-17T00:00:51.558Z,9.18
2018-10-17T00:01:51.524Z,9.29
2018-10-17T00:02:51.495Z,9.33
2018-10-17T00:03:51.468Z,9.18
2018-10-17T00:04:51.473Z,9.21
2018-10-17T00:05:51.415Z,9.13
2018-10-17T00:06:51.431Z,9.17
2018-10-17T00:07:51.362Z,9.18
2018-10-17T00:08:51.334Z,9.17
2018-10-17T00:09:51.309Z,9.13
2018-10-17T00:10:51.298Z,9.11
2018-10-17T00:11:51.255Z,9.14
2018-10-17T00:12:51.229Z,9.08
2018-10-17T00:13:51.201Z,9.05
2018-10-17T00:14:51.173Z,9.04
2018-10-17T00:15:51.145Z,9.05
2018-10-17T00:16:51.144Z,9.01
2018-10-17T00:17:51.095Z,8.91
2018-10-17T00:18:51.068Z,9.08
2018-10-17T00:19:51.040Z,9.02
2018-10-17T00:20:51.015Z,8.99
2018-10-17T00:21:50.986Z,8.94
2018-10-17T00:22:50.962Z,8.99
2018-10-17T00:23:50.932Z,8.96
2018-10-17T00:24:50.961Z,8.91
2018-10-17T00:25:50.878Z,8.86
2018-10-17T00:26:50.851Z,8.99
2018-10-17T00:27:50.824Z,8.84
2018-10-17T00:28:50.799Z,8.91
2018-10-17T00:29:50.770Z,8.83
2018-10-17T00:30:50.764Z,8.91
2018-10-17T00:31:50.715Z,8.95
2018-10-17T00:32:50.689Z,8.91
2018-10-17T00:33:50.663Z,8.94
2018-10-17T00:34:50.635Z,9.02
2018-10-17T00:35:50.607Z,8.92
2018-10-17T00:36:50.624Z,9.02
2018-10-17T00:37:50.565Z,8.94
2018-10-17T00:38:50.527Z,8.95
2018-10-17T00:39:50.500Z,8.83
2018-10-17T00:40:50.476Z,8.84
2018-10-17T00:41:50.446Z,8.95
2018-10-17T00:42:50.419Z,8.89
2018-10-17T00:43:50.392Z,8.83
2018-10-17T00:44:50.368Z,8.84
2018-10-17T00:45:50.338Z,8.91
2018-10-17T00:46:50.310Z,8.96
2018-10-17T00:47:50.284Z,8.92
2018-10-17T00:48:50.256Z,8.95
2018-10-17T00:49:50.231Z,8.96
2018-10-17T00:50:50.202Z,8.94
2018-10-17T00:51:50.176Z,8.84
2018-10-17T00:52:50.148Z,8.81
2018-10-17T00:53:50.123Z,8.91
2018-10-17T00:54:50.094Z,8.94
2018-10-17T00:55:50.069Z,8.83
2018-10-17T00:56:50.043Z,8.77
2018-10-17T00:57:50.014Z,8.86
2018-10-17T00:58:49.985Z,8.84
2018-10-17T00:59:49.961Z,8.83
2018-10-17T01:00:49.933Z,8.87
2018-10-17T01:01:49.908Z,8.83
2018-10-17T01:02:49.881Z,8.92
2018-10-17T01:03:49.852Z,8.81
2018-10-17T01:04:49.825Z,8.84
2018-10-17T01:05:49.800Z,8.84
2018-10-17T01:06:49.771Z,8.74
2018-10-17T01:07:49.743Z,8.89
2018-10-17T01:08:49.718Z,8.70
2018-10-17T01:09:49.692Z,8.77
2018-10-17T01:10:49.662Z,8.87
2018-10-17T01:11:49.636Z,8.91
2018-10-17T01:12:49.610Z,8.94
2018-10-17T01:13:49.583Z,8.94
2018-10-17T01:14:49.552Z,8.98
2018-10-17T01:15:49.527Z,8.96
2018-10-17T01:16:49.500Z,8.99
2018-10-17T01:17:49.474Z,8.86
2018-10-17T01:18:49.446Z,8.86
2018-10-17T01:19:49.419Z,8.91
2018-10-17T01:20:49.393Z,8.91
2018-10-17T01:21:49.364Z,8.89
2018-10-17T01:22:49.337Z,8.80
2018-10-17T01:23:49.311Z,8.80
2018-10-17T01:24:49.283Z,8.76
2018-10-17T01:25:49.257Z,8.79
2018-10-17T01:26:49.229Z,8.81
2018-10-17T01:27:49.201Z,8.81
2018-10-17T01:28:49.175Z,8.79
2018-10-17T01:29:49.149Z,8.74
2018-10-17T01:30:49.121Z,8.73
2018-10-17T01:31:49.094Z,8.71
2018-10-17T01:32:49.067Z,8.58
2018-10-17T01:33:49.040Z,8.66
2018-10-17T01:34:49.012Z,8.59
2018-10-17T01:35:48.985Z,8.55
2018-10-17T01:36:48.957Z,8.59
2018-10-17T01:37:48.933Z,8.59
2018-10-17T01:38:48.904Z,8.58
2018-10-17T01:39:48.877Z,8.53
2018-10-17T01:40:48.850Z,8.56
2018-10-17T01:41:48.823Z,8.44
2018-10-17T01:42:48.793Z,8.44
2018-10-17T01:43:48.767Z,8.41
2018-10-17T01:44:48.740Z,8.44
2018-10-17T01:45:48.714Z,8.44
2018-10-17T01:46:48.688Z,8.50
2018-10-17T01:47:48.659Z,8.53
2018-10-17T01:48:48.631Z,8.52
2018-10-17T01:49:48.605Z,8.41
2018-10-17T01:50:48.580Z,8.37
2018-10-17T01:51:48.549Z,8.34
2018-10-17T01:52:48.523Z,8.26
2018-10-17T01:53:48.496Z,8.22
2018-10-17T01:54:48.469Z,8.18
2018-10-17T01:55:48.442Z,8.18
2018-10-17T01:56:48.416Z,8.11
2018-10-17T01:57:48.390Z,8.05
2018-10-17T01:58:48.359Z,8.07
2018-10-17T01:59:48.331Z,8.12
2018-10-17T02:00:48.304Z,8.12
2018-10-17T02:01:48.277Z,8.12
2018-10-17T02:02:48.251Z,8.02
2018-10-17T02:03:48.224Z,8.05
2018-10-17T02:04:48.197Z,8.12
2018-10-17T02:05:48.171Z,8.10
2018-10-17T02:06:48.143Z,8.16
2018-10-17T02:07:48.114Z,8.11
2018-10-17T02:08:48.088Z,8.10
2018-10-17T02:09:48.059Z,8.15
2018-10-17T02:10:48.033Z,8.19
2018-10-17T02:11:48.005Z,8.33
2018-10-17T02:12:47.977Z,8.26
2018-10-17T02:13:47.953Z,8.25
2018-10-17T02:14:47.923Z,8.28
2018-10-17T02:15:47.898Z,8.34
2018-10-17T02:16:47.867Z,8.33
2018-10-17T02:17:47.843Z,8.33
2018-10-17T02:18:47.815Z,8.28
2018-10-17T02:19:47.789Z,8.26
2018-10-17T02:20:47.760Z,8.28
2018-10-17T02:21:47.732Z,8.28
2018-10-17T02:22:47.706Z,8.20
2018-10-17T02:23:47.677Z,8.22
2018-10-17T02:24:47.650Z,8.25
2018-10-17T02:25:47.622Z,8.16
2018-10-17T02:26:47.594Z,8.15
2018-10-17T02:27:47.568Z,8.05
2018-10-17T02:28:47.543Z,8.07
2018-10-17T02:29:47.529Z,8.07
2018-10-17T02:30:47.485Z,8.01
2018-10-17T02:31:47.459Z,8.05
2018-10-17T02:32:47.431Z,7.95
2018-10-17T02:33:47.406Z,7.93
2018-10-17T02:34:47.380Z,7.92
2018-10-17T02:35:47.349Z,7.87
2018-10-17T02:36:47.321Z,7.82
2018-10-17T02:37:47.294Z,7.83
2018-10-17T02:38:47.268Z,7.86
2018-10-17T02:39:47.344Z,7.82
2018-10-17T02:40:47.213Z,7.82
2018-10-17T02:41:47.184Z,7.75
2018-10-17T02:42:47.157Z,7.74
2018-10-17T02:43:47.129Z,7.69
2018-10-17T02:44:47.102Z,7.64
2018-10-17T02:45:47.077Z,7.71
2018-10-17T02:46:47.046Z,7.67
2018-10-17T02:47:47.019Z,7.69
2018-10-17T02:48:46.993Z,7.83
2018-10-17T02:49:46.966Z,7.77
2018-10-17T02:50:46.938Z,7.72
2018-10-17T02:51:46.909Z,7.79
2018-10-17T02:52:46.884Z,7.74
2018-10-17T02:53:46.856Z,7.77
2018-10-17T02:54:46.828Z,7.77
2018-10-17T02:55:46.801Z,7.75
2018-10-17T02:56:46.773Z,7.77
2018-10-17T02:57:46.746Z,7.79
2018-10-17T02:58:46.717Z,7.89
2018-10-17T02:59:46.692Z,7.85
2018-10-17T03:00:46.663Z,7.86
2018-10-17T03:01:46.636Z,7.85
2018-10-17T03:02:46.609Z,7.92
2018-10-17T03:03:46.581Z,7.89
2018-10-17T03:04:46.554Z,7.90
2018-10-17T03:05:46.527Z,7.92
2018-10-17T03:06:46.501Z,7.83
2018-10-17T03:07:46.471Z,7.79
2018-10-17T03:08:46.444Z,7.87
2018-10-17T03:09:46.418Z,7.80
2018-10-17T03:10:46.393Z,7.89
2018-10-17T03:11:46.362Z,7.92
2018-10-17T03:12:46.335Z,8.02
2018-10-17T03:13:46.313Z,8.01
2018-10-17T03:14:46.281Z,8.01
2018-10-17T03:15:46.258Z,8.05
2018-10-17T03:16:46.225Z,8.11
2018-10-17T03:17:46.232Z,8.10
2018-10-17T03:18:46.169Z,8.08
2018-10-17T03:19:46.142Z,8.18
2018-10-17T03:20:46.115Z,8.19
2018-10-17T03:21:46.089Z,8.16
2018-10-17T03:22:46.059Z,8.18
2018-10-17T03:23:46.034Z,8.28
2018-10-17T03:24:46.007Z,8.23
2018-10-17T03:25:45.978Z,8.25
2018-10-17T03:26:45.949Z,8.28
2018-10-17T03:27:45.976Z,8.25
2018-10-17T03:28:45.896Z,8.23
2018-10-17T03:29:45.867Z,8.20
2018-10-17T03:30:45.841Z,8.18
2018-10-17T03:31:45.819Z,8.19
2018-10-17T03:32:45.788Z,8.23
2018-10-17T03:33:45.759Z,8.08
2018-10-17T03:34:45.730Z,8.23
2018-10-17T03:35:45.721Z,8.16
2018-10-17T03:36:45.680Z,8.26
2018-10-17T03:37:45.649Z,8.19
2018-10-17T03:38:45.621Z,8.28
2018-10-17T03:39:45.594Z,8.28
2018-10-17T03:40:45.570Z,8.23
2018-10-17T03:41:45.539Z,8.18
2018-10-17T03:42:46.496Z,8.16
2018-10-17T03:43:45.484Z,8.11
2018-10-17T03:44:45.459Z,8.11
2018-10-17T03:45:45.430Z,8.02
2018-10-17T03:46:45.402Z,8.07
2018-10-17T03:47:45.374Z,8.18
2018-10-17T03:48:45.347Z,8.05
2018-10-17T03:49:45.371Z,8.16
2018-10-17T03:50:45.295Z,8.18
2018-10-17T03:51:45.264Z,8.20
2018-10-17T03:52:45.237Z,8.23
2018-10-17T03:53:45.217Z,8.18
2018-10-17T03:54:45.185Z,8.19
2018-10-17T03:55:45.157Z,8.18
2018-10-17T03:56:45.127Z,8.23
2018-10-17T03:57:45.099Z,8.16
2018-10-17T03:58:45.074Z,8.20
2018-10-17T03:59:45.142Z,8.19
2018-10-17T04:00:45.017Z,8.34
2018-10-17T04:01:44.988Z,8.34
2018-10-17T04:02:44.961Z,8.33
2018-10-17T04:03:44.933Z,8.30
2018-10-17T04:04:44.906Z,8.34
2018-10-17T04:05:44.880Z,8.36
2018-10-17T04:06:44.852Z,8.29
2018-10-17T04:07:44.840Z,8.30
2018-10-17T04:08:44.802Z,8.33
2018-10-17T04:09:44.772Z,8.30
2018-10-17T04:10:44.742Z,8.37
2018-10-17T04:11:44.717Z,8.38
2018-10-17T04:12:44.688Z,8.48
2018-10-17T04:13:44.661Z,8.50
2018-10-17T04:14:44.633Z,8.53
2018-10-17T04:15:44.605Z,8.61
2018-10-17T04:16:44.577Z,8.43
2018-10-17T04:17:44.550Z,8.41
2018-10-17T04:18:44.522Z,8.47
2018-10-17T04:19:44.496Z,8.44
2018-10-17T04:20:44.495Z,8.38
2018-10-17T04:21:44.441Z,8.41
2018-10-17T04:22:44.532Z,8.44
2018-10-17T04:23:44.386Z,8.36
2018-10-17T04:24:44.360Z,8.45
2018-10-17T04:25:44.332Z,8.34
2018-10-17T04:26:44.303Z,8.29
2018-10-17T04:27:44.276Z,8.29
2018-10-17T04:28:44.249Z,8.33
2018-10-17T04:29:44.225Z,8.25
2018-10-17T04:30:44.194Z,8.16
2018-10-17T04:31:44.166Z,8.18
2018-10-17T04:32:44.145Z,8.11
2018-10-17T04:33:44.113Z,8.10
2018-10-17T04:34:44.085Z,8.07
2018-10-17T04:35:44.056Z,8.10
2018-10-17T04:36:44.030Z,8.08
2018-10-17T04:37:44.008Z,8.12
2018-10-17T04:38:43.974Z,8.08
2018-10-17T04:39:43.946Z,8.11
2018-10-17T04:40:43.919Z,8.11
2018-10-17T04:41:43.894Z,8.02
2018-10-17T04:42:43.865Z,8.01
2018-10-17T04:43:43.837Z,8.02
2018-10-17T04:44:43.810Z,7.98
2018-10-17T04:45:43.789Z,7.92
2018-10-17T04:46:43.757Z,7.92
2018-10-17T04:47:43.784Z,7.98
2018-10-17T04:48:43.701Z,7.92
2018-10-17T04:49:43.675Z,7.92
2018-10-17T04:50:43.644Z,8.01
2018-10-17T04:51:43.618Z,8.04
2018-10-17T04:52:43.591Z,8.05
2018-10-17T04:53:43.563Z,8.04
2018-10-17T04:54:43.536Z,8.10
2018-10-17T04:55:43.507Z,8.19
2018-10-17T04:56:43.481Z,8.16
2018-10-17T04:57:43.452Z,8.10
2018-10-17T04:58:43.424Z,8.16
2018-10-17T04:59:43.396Z,8.10
2018-10-17T05:00:43.374Z,8.08
2018-10-17T05:01:43.344Z,8.19
2018-10-17T05:02:43.318Z,8.18
2018-10-17T05:03:43.287Z,8.15
2018-10-17T05:04:43.364Z,8.20
2018-10-17T05:05:43.230Z,8.20
2018-10-17T05:06:43.253Z,8.19
2018-10-17T05:07:43.179Z,8.22
2018-10-17T05:08:43.149Z,8.28
2018-10-17T05:09:43.122Z,8.22
2018-10-17T05:10:43.093Z,8.30
2018-10-17T05:11:43.064Z,8.30
2018-10-17T05:12:43.039Z,8.37
2018-10-17T05:13:43.010Z,8.43
2018-10-17T05:14:42.987Z,8.50
2018-10-17T05:15:42.955Z,8.44
2018-10-17T05:16:42.930Z,8.50
2018-10-17T05:17:42.901Z,8.50
2018-10-17T05:18:42.874Z,8.55
2018-10-17T05:19:42.846Z,8.43
2018-10-17T05:20:42.818Z,8.37
2018-10-17T05:21:42.790Z,8.41
2018-10-17T05:22:42.773Z,8.41
2018-10-17T05:23:42.735Z,8.44
2018-10-17T05:24:42.709Z,8.41
2018-10-17T05:25:42.682Z,8.37
2018-10-17T05:26:42.653Z,8.38
2018-10-17T05:27:42.626Z,8.37
2018-10-17T05:28:42.599Z,8.33
2018-10-17T05:29:42.675Z,8.33
2018-10-17T05:30:42.547Z,8.43
2018-10-17T05:31:42.516Z,8.33
2018-10-17T05:32:42.489Z,8.34
2018-10-17T05:33:42.465Z,8.38
2018-10-17T05:34:42.435Z,8.30
2018-10-17T05:35:42.408Z,8.34
2018-10-17T05:36:42.381Z,8.33
2018-10-17T05:37:42.365Z,8.25
2018-10-17T05:38:42.326Z,8.25
2018-10-17T05:39:42.301Z,8.25
2018-10-17T05:40:42.271Z,8.22
2018-10-17T05:41:42.246Z,8.22
2018-10-17T05:42:42.216Z,8.19
2018-10-17T05:43:42.189Z,8.16
2018-10-17T05:44:42.164Z,8.20
2018-10-17T05:45:42.135Z,8.18
2018-10-17T05:46:42.109Z,8.16
2018-10-17T05:47:42.083Z,8.18
2018-10-17T05:48:42.053Z,8.25
2018-10-17T05:49:42.026Z,8.20
2018-10-17T05:50:41.998Z,8.16
2018-10-17T05:51:41.974Z,8.08
2018-10-17T05:52:41.943Z,8.12
2018-10-17T05:53:41.918Z,8.05
2018-10-17T05:54:41.889Z,8.05
2018-10-17T05:55:41.918Z,8.16
2018-10-17T05:56:41.835Z,8.12
2018-10-17T05:57:41.805Z,8.02
2018-10-17T05:58:41.779Z,8.07
2018-10-17T05:59:41.753Z,8.12
2018-10-17T06:00:41.724Z,8.04
2018-10-17T06:01:41.796Z,8.08
2018-10-17T06:02:41.669Z,8.15
2018-10-17T06:03:41.640Z,8.08
2018-10-17T06:04:41.613Z,8.15
2018-10-17T06:05:41.587Z,8.16
2018-10-17T06:06:41.558Z,8.25
2018-10-17T06:07:41.533Z,8.28
2018-10-17T06:08:41.506Z,8.29
2018-10-17T06:09:41.480Z,8.37
2018-10-17T06:10:41.449Z,8.33
2018-10-17T06:11:41.426Z,8.30
2018-10-17T06:12:41.397Z,8.38
2018-10-17T06:13:41.370Z,8.40
2018-10-17T06:14:41.341Z,8.41
2018-10-17T06:15:41.313Z,8.44
2018-10-17T06:16:41.301Z,8.52
2018-10-17T06:17:41.258Z,8.56
2018-10-17T06:18:41.231Z,8.53
2018-10-17T06:19:41.204Z,8.56
2018-10-17T06:20:41.175Z,8.61
2018-10-17T06:21:41.149Z,8.58
2018-10-17T06:22:41.121Z,8.63
2018-10-17T06:23:41.094Z,8.62
2018-10-17T06:24:41.071Z,8.56
2018-10-17T06:25:41.047Z,8.56
2018-10-17T06:26:41.013Z,8.59
2018-10-17T06:27:40.984Z,8.71
2018-10-17T06:28:40.959Z,8.59
2018-10-17T06:29:40.931Z,8.70
2018-10-17T06:30:40.986Z,8.79
2018-10-17T06:31:40.875Z,8.79
2018-10-17T06:32:40.850Z,8.77
2018-10-17T06:33:40.822Z,8.74
2018-10-17T06:34:40.846Z,8.89
2018-10-17T06:35:40.768Z,8.86
2018-10-17T06:36:40.740Z,8.84
2018-10-17T06:37:40.713Z,8.92
2018-10-17T06:38:40.687Z,8.98
2018-10-17T06:39:40.662Z,8.94
2018-10-17T06:40:40.633Z,8.96
2018-10-17T06:41:40.606Z,9.02
2018-10-17T06:42:40.592Z,9.02
2018-10-17T06:43:40.661Z,9.13
2018-10-17T06:44:40.524Z,9.11
2018-10-17T06:45:40.510Z,9.17
2018-10-17T06:46:40.471Z,9.15
2018-10-17T06:47:40.444Z,9.18
2018-10-17T06:48:40.419Z,9.29
2018-10-17T06:49:40.391Z,9.28
2018-10-17T06:50:40.363Z,9.42
2018-10-17T06:51:40.336Z,9.40
2018-10-17T06:52:40.309Z,9.48
2018-10-17T06:53:40.344Z,9.48
2018-10-17T06:54:40.261Z,9.58
2018-10-17T06:55:40.230Z,9.68
2018-10-17T06:56:40.207Z,9.79
2018-10-17T06:57:40.177Z,9.83
2018-10-17T06:58:40.150Z,9.87
2018-10-17T06:59:40.124Z,9.99
2018-10-17T07:00:40.097Z,10.09
2018-10-17T07:01:40.172Z,10.12
2018-10-17T07:02:40.041Z,10.27
2018-10-17T07:03:40.017Z,10.40
2018-10-17T07:04:39.990Z,10.52
2018-10-17T07:05:39.963Z,10.63
2018-10-17T07:06:39.935Z,10.63
2018-10-17T07:07:39.911Z,10.73
2018-10-17T07:08:39.985Z,10.96
2018-10-17T07:09:39.859Z,11.00
2018-10-17T07:10:39.831Z,11.07
2018-10-17T07:11:39.806Z,11.15
2018-10-17T07:12:39.781Z,11.22
2018-10-17T07:13:39.752Z,11.27
2018-10-17T07:14:39.728Z,11.39
2018-10-17T07:15:39.877Z,11.37
2018-10-17T07:16:39.679Z,11.40
2018-10-17T07:17:39.650Z,11.44
2018-10-17T07:18:39.624Z,11.47
2018-10-17T07:19:39.598Z,11.54
2018-10-17T07:20:39.612Z,11.51
2018-10-17T07:21:39.545Z,11.64
2018-10-17T07:22:39.520Z,11.60
2018-10-17T07:23:39.495Z,11.73
2018-10-17T07:24:39.470Z,11.94
2018-10-17T07:25:39.447Z,12.23
2018-10-17T07:26:39.418Z,12.49
2018-10-17T07:27:39.394Z,12.68
2018-10-17T07:28:39.416Z,12.64
2018-10-17T07:29:39.528Z,12.96
2018-10-17T07:30:39.317Z,13.33
2018-10-17T07:31:39.292Z,13.62
2018-10-17T07:32:39.268Z,13.91
2018-10-17T07:33:39.243Z,14.09
2018-10-17T07:34:39.217Z,14.58
2018-10-17T07:35:39.213Z,14.69
2018-10-17T07:36:39.167Z,14.95
2018-10-17T07:37:39.142Z,15.21
2018-10-17T07:38:39.118Z,15.35
2018-10-17T07:39:39.093Z,15.57
2018-10-17T07:40:39.070Z,15.72
2018-10-17T07:41:39.046Z,16.02
2018-10-17T07:42:39.020Z,16.34
2018-10-17T07:43:38.996Z,16.35
2018-10-17T07:44:38.973Z,16.42
2018-10-17T07:45:38.956Z,16.67
2018-10-17T07:46:38.926Z,16.97
2018-10-17T07:47:38.903Z,17.19
2018-10-17T07:48:38.880Z,17.44
2018-10-17T07:49:38.859Z,17.74
2018-10-17T07:50:38.834Z,17.84
2018-10-17T07:51:38.810Z,17.87
2018-10-17T07:52:38.788Z,18.00
2018-10-17T07:53:38.880Z,18.17
2018-10-17T07:54:38.744Z,18.36
2018-10-17T07:55:38.722Z,18.55
2018-10-17T07:56:38.698Z,18.85
2018-10-17T07:57:38.678Z,19.06
2018-10-17T07:58:38.654Z,19.16
2018-10-17T07:59:38.677Z,19.11
2018-10-17T08:00:38.612Z,19.25
2018-10-17T08:01:38.591Z,19.37
2018-10-17T08:02:38.567Z,19.56
2018-10-17T08:03:38.546Z,19.69
2018-10-17T08:04:38.524Z,19.95
2018-10-17T08:05:38.504Z,19.91
2018-10-17T08:06:38.500Z,19.71
2018-10-17T08:07:38.459Z,19.88
2018-10-17T08:08:38.439Z,19.98
2018-10-17T08:09:38.419Z,20.06
2018-10-17T08:10:38.397Z,20.28
2018-10-17T08:11:38.376Z,20.52
2018-10-17T08:12:38.356Z,20.69
2018-10-17T08:13:38.350Z,20.80
2018-10-17T08:14:38.313Z,20.92
2018-10-17T08:15:38.292Z,20.89
2018-10-17T08:16:38.271Z,20.80
2018-10-17T08:17:38.251Z,20.59
2018-10-17T08:18:38.230Z,20.66
2018-10-17T08:19:38.211Z,20.67
2018-10-17T08:20:38.193Z,20.64
2018-10-17T08:21:38.169Z,20.77
2018-10-17T08:22:38.148Z,20.76
2018-10-17T08:23:38.128Z,20.61
2018-10-17T08:24:38.109Z,20.31
2018-10-17T08:25:38.090Z,20.13
2018-10-17T08:26:38.068Z,20.08
2018-10-17T08:27:38.101Z,20.17
2018-10-17T08:28:38.028Z,20.28
2018-10-17T08:29:38.009Z,20.06
2018-10-17T08:30:37.989Z,20.02
2018-10-17T08:31:37.968Z,20.28
2018-10-17T08:32:37.948Z,20.18
2018-10-17T08:33:37.928Z,20.16
2018-10-17T08:34:37.908Z,20.21
2018-10-17T08:35:37.906Z,20.39
2018-10-17T08:36:38.066Z,20.62
2018-10-17T08:37:38.225Z,21.04
2018-10-17T08:38:37.829Z,21.17
2018-10-17T08:39:37.813Z,21.46
2018-10-17T08:40:37.790Z,21.10
2018-10-17T08:41:37.770Z,20.87
2018-10-17T08:42:37.755Z,21.14
2018-10-17T08:43:37.731Z,21.01
2018-10-17T08:44:37.711Z,21.09
2018-10-17T08:45:37.692Z,21.22
2018-10-17T08:46:37.673Z,21.17
2018-10-17T08:47:37.652Z,20.79
2018-10-17T08:48:37.631Z,20.64
2018-10-17T08:49:37.614Z,20.97
2018-10-17T08:50:37.605Z,20.95
2018-10-17T08:51:37.574Z,21.27
2018-10-17T08:52:37.555Z,21.74
2018-10-17T08:53:37.575Z,21.86
2018-10-17T08:54:37.515Z,22.15
2018-10-17T08:55:37.494Z,21.90
2018-10-17T08:56:37.479Z,21.94
2018-10-17T08:57:37.521Z,21.74
2018-10-17T08:58:37.437Z,21.82
2018-10-17T08:59:37.419Z,22.27
2018-10-17T09:00:37.399Z,22.54
2018-10-17T09:01:37.378Z,22.77
2018-10-17T09:02:37.360Z,22.79
2018-10-17T09:03:37.340Z,23.02
2018-10-17T09:04:37.321Z,23.28
2018-10-17T09:05:37.302Z,23.48
2018-10-17T09:06:37.283Z,23.38
2018-10-17T09:07:37.268Z,23.15
2018-10-17T09:08:37.255Z,22.79
2018-10-17T09:09:37.228Z,22.36
2018-10-17T09:10:37.210Z,22.33
2018-10-17T09:11:37.188Z,22.18
2018-10-17T09:12:37.170Z,22.05
2018-10-17T09:13:37.247Z,22.03
2018-10-17T09:14:37.134Z,22.37
2018-10-17T09:15:38.542Z,22.83
2018-10-17T09:16:37.178Z,23.31
2018-10-17T09:17:37.078Z,23.73
2018-10-17T09:18:37.060Z,23.68
2018-10-17T09:19:37.208Z,23.33
2018-10-17T09:20:37.431Z,23.22
2018-10-17T09:21:37.356Z,23.13
2018-10-17T09:22:37.072Z,23.00
2018-10-17T09:23:36.969Z,23.12
2018-10-17T09:24:36.951Z,23.27
2018-10-17T09:25:37.016Z,23.36
2018-10-17T09:26:36.915Z,23.47
2018-10-17T09:27:36.899Z,23.40
2018-10-17T09:28:36.879Z,23.53
2018-10-17T09:29:36.861Z,23.79
2018-10-17T09:30:36.918Z,23.76
2018-10-17T09:31:36.825Z,23.91
2018-10-17T09:32:36.807Z,24.13
2018-10-17T09:33:36.788Z,24.02
2018-10-17T09:34:36.775Z,24.05
2018-10-17T09:35:36.822Z,24.21
2018-10-17T09:36:36.736Z,24.20
2018-10-17T09:37:36.719Z,24.34
2018-10-17T09:38:36.700Z,24.62
2018-10-17T09:39:36.686Z,24.61
2018-10-17T09:40:36.665Z,24.34
2018-10-17T09:41:36.648Z,24.24
2018-10-17T09:42:36.632Z,24.06
2018-10-17T09:43:36.615Z,23.98
2018-10-17T09:44:36.596Z,23.98
2018-10-17T09:45:36.579Z,24.22
2018-10-17T09:46:36.562Z,24.35
2018-10-17T09:47:36.543Z,24.76
2018-10-17T09:48:36.527Z,25.09
2018-10-17T09:49:36.511Z,25.36
2018-10-17T09:50:36.491Z,25.27
2018-10-17T09:51:36.474Z,25.23
2018-10-17T09:52:36.457Z,25.73
2018-10-17T09:53:36.438Z,25.76
2018-10-17T09:54:36.420Z,25.77
2018-10-17T09:55:36.404Z,25.88
2018-10-17T09:56:36.386Z,25.97
2018-10-17T09:57:36.369Z,26.36
2018-10-17T09:58:36.352Z,26.12
2018-10-17T09:59:36.335Z,26.32
2018-10-17T10:00:36.317Z,26.57
2018-10-17T10:01:36.301Z,25.98
2018-10-17T10:02:36.284Z,25.62
2018-10-17T10:03:36.266Z,25.72
2018-10-17T10:04:36.249Z,25.98
2018-10-17T10:05:36.232Z,26.36
2018-10-17T10:06:36.215Z,26.63
2018-10-17T10:07:36.198Z,26.33
2018-10-17T10:08:36.182Z,26.51
2018-10-17T10:09:36.164Z,26.67
2018-10-17T10:10:36.153Z,26.35
2018-10-17T10:11:36.130Z,26.62
2018-10-17T10:12:36.115Z,26.06
2018-10-17T10:13:36.099Z,26.02
2018-10-17T10:14:36.083Z,26.40
2018-10-17T10:15:36.064Z,26.29
2018-10-17T10:16:36.047Z,26.33
2018-10-17T10:17:36.063Z,26.29
2018-10-17T10:18:36.013Z,26.37
2018-10-17T10:19:35.997Z,26.43
2018-10-17T10:20:35.982Z,26.39
2018-10-17T10:21:35.966Z,26.33
2018-10-17T10:22:35.963Z,26.09
2018-10-17T10:23:35.983Z,26.05
2018-10-17T10:24:35.954Z,26.12
2018-10-17T10:25:35.900Z,26.25
2018-10-17T10:26:35.889Z,26.40
2018-10-17T10:27:35.867Z,26.37
2018-10-17T10:28:35.894Z,26.58
2018-10-17T10:29:35.878Z,26.69
2018-10-17T10:30:35.818Z,27.02
2018-10-17T10:31:35.798Z,26.80
2018-10-17T10:32:35.783Z,27.09
2018-10-17T10:33:35.776Z,27.55
2018-10-17T10:34:35.750Z,28.07
2018-10-17T10:35:35.734Z,28.40
2018-10-17T10:36:35.716Z,28.74
2018-10-17T10:37:35.701Z,28.78
2018-10-17T10:38:35.685Z,28.67
2018-10-17T10:39:35.668Z,28.19
2018-10-17T10:40:35.714Z,27.88
2018-10-17T10:41:35.636Z,27.72
2018-10-17T10:42:35.618Z,27.51
2018-10-17T10:43:35.604Z,27.34
2018-10-17T10:44:35.588Z,27.32
2018-10-17T10:45:35.671Z,27.39
2018-10-17T10:46:35.555Z,27.28
2018-10-17T10:47:35.542Z,27.49
2018-10-17T10:48:35.526Z,27.78
2018-10-17T10:49:35.509Z,27.36
2018-10-17T10:50:35.490Z,27.44
2018-10-17T10:51:35.565Z,27.90
2018-10-17T10:52:35.460Z,28.21
2018-10-17T10:53:35.443Z,28.66
2018-10-17T10:54:35.424Z,29.21
2018-10-17T10:55:35.409Z,29.61
2018-10-17T10:56:35.397Z,30.11
2018-10-17T10:57:35.376Z,30.43
2018-10-17T10:58:35.529Z,30.34
2018-10-17T10:59:35.571Z,30.35
2018-10-17T11:00:35.328Z,30.49
2018-10-17T11:01:35.313Z,30.29
2018-10-17T11:02:35.295Z,29.94
2018-10-17T11:03:35.280Z,29.57
2018-10-17T11:04:35.331Z,29.51
2018-10-17T11:05:35.446Z,29.11
2018-10-17T11:06:35.232Z,28.66
2018-10-17T11:07:35.217Z,28.40
2018-10-17T11:08:35.201Z,28.25
2018-10-17T11:09:35.184Z,28.04
2018-10-17T11:10:35.167Z,27.82
2018-10-17T11:11:35.151Z,28.07
2018-10-17T11:12:35.134Z,28.49
2018-10-17T11:13:35.120Z,28.41
2018-10-17T11:14:35.125Z,28.80
2018-10-17T11:15:35.087Z,28.71
2018-10-17T11:16:35.071Z,28.78
2018-10-17T11:17:35.056Z,28.64
2018-10-17T11:18:35.042Z,28.88
2018-10-17T11:19:35.028Z,29.06
2018-10-17T11:20:35.004Z,29.57
2018-10-17T11:21:34.990Z,29.27
2018-10-17T11:22:34.974Z,29.19
2018-10-17T11:23:34.957Z,28.88
2018-10-17T11:24:34.941Z,29.30
2018-10-17T11:25:34.924Z,29.52
2018-10-17T11:26:34.907Z,29.98
2018-10-17T11:27:34.892Z,30.19
2018-10-17T11:28:34.875Z,29.52
2018-10-17T11:29:34.859Z,29.36
2018-10-17T11:30:34.844Z,29.02
2018-10-17T11:31:34.829Z,28.86
2018-10-17T11:32:34.812Z,29.04
2018-10-17T11:33:34.796Z,29.37
2018-10-17T11:34:34.778Z,29.86
2018-10-17T11:35:34.764Z,30.11
2018-10-17T11:36:34.747Z,30.24
2018-10-17T11:37:34.825Z,30.00
2018-10-17T11:38:34.714Z,29.70
2018-10-17T11:39:34.697Z,29.64
2018-10-17T11:40:34.744Z,29.55
2018-10-17T11:41:34.681Z,29.76
2018-10-17T11:42:34.651Z,30.22
2018-10-17T11:43:34.634Z,30.23
2018-10-17T11:44:34.618Z,30.22
2018-10-17T11:45:34.602Z,29.70
2018-10-17T11:46:34.589Z,29.00
2018-10-17T11:47:34.574Z,28.74
2018-10-17T11:48:34.554Z,28.56
2018-10-17T11:49:34.538Z,28.55
2018-10-17T11:50:34.585Z,28.73
2018-10-17T11:51:34.507Z,28.85
2018-10-17T11:52:34.490Z,28.89
2018-10-17T11:53:34.472Z,29.14
2018-10-17T11:54:34.455Z,29.04
2018-10-17T11:55:34.440Z,29.00
2018-10-17T11:56:34.425Z,29.00
2018-10-17T11:57:34.407Z,29.00
2018-10-17T11:58:34.390Z,28.68
2018-10-17T11:59:34.390Z,28.49
2018-10-17T12:00:34.358Z,28.58
2018-10-17T12:01:34.351Z,28.64
2018-10-17T12:02:34.325Z,28.48
2018-10-17T12:03:34.470Z,28.58
2018-10-17T12:04:34.384Z,28.85
2018-10-17T12:05:34.806Z,29.27
2018-10-17T12:06:34.326Z,29.53
2018-10-17T12:07:34.242Z,29.39
2018-10-17T12:08:34.227Z,29.61
2018-10-17T12:09:34.212Z,29.90
2018-10-17T12:10:34.194Z,30.16
2018-10-17T12:11:34.214Z,29.73
2018-10-17T12:12:34.164Z,29.85
2018-10-17T12:13:34.146Z,29.65
2018-10-17T12:14:34.131Z,29.58
2018-10-17T12:15:34.112Z,28.98
2018-10-17T12:16:34.094Z,28.49
2018-10-17T12:17:34.079Z,28.07
2018-10-17T12:18:34.063Z,27.82
2018-10-17T12:19:34.060Z,28.14
2018-10-17T12:20:34.031Z,28.30
2018-10-17T12:21:34.079Z,28.70
2018-10-17T12:22:33.996Z,29.19
2018-10-17T12:23:33.980Z,29.28
2018-10-17T12:24:33.964Z,29.06
2018-10-17T12:25:33.947Z,28.73
2018-10-17T12:26:33.930Z,28.89
2018-10-17T12:27:33.916Z,28.52
2018-10-17T12:28:34.023Z,28.78
2018-10-17T12:29:33.880Z,28.96
2018-10-17T12:30:33.863Z,29.09
2018-10-17T12:31:33.848Z,29.37
2018-10-17T12:32:33.831Z,29.64
2018-10-17T12:33:33.815Z,29.37
2018-10-17T12:34:33.797Z,29.19
2018-10-17T12:35:33.780Z,28.95
2018-10-17T12:36:33.767Z,28.81
2018-10-17T12:37:33.749Z,28.88
2018-10-17T12:38:33.731Z,29.06
2018-10-17T12:39:33.870Z,28.83
2018-10-17T12:40:33.860Z,28.96
2018-10-17T12:41:33.733Z,28.76
2018-10-17T12:42:33.665Z,29.02
2018-10-17T12:43:33.651Z,29.53
2018-10-17T12:44:33.635Z,29.78
2018-10-17T12:45:33.630Z,30.01
2018-10-17T12:46:33.598Z,29.82
2018-10-17T12:47:33.583Z,29.90
2018-10-17T12:48:33.567Z,30.11
2018-10-17T12:49:33.553Z,30.34
2018-10-17T12:50:33.533Z,30.19
2018-10-17T12:51:33.518Z,30.17
2018-10-17T12:52:33.584Z,30.17
2018-10-17T12:53:33.612Z,30.13
2018-10-17T12:54:33.466Z,30.26
2018-10-17T12:55:33.451Z,30.51
2018-10-17T12:56:33.436Z,29.90
2018-10-17T12:57:33.421Z,29.76
2018-10-17T12:58:33.401Z,29.58
2018-10-17T12:59:33.385Z,29.68
2018-10-17T13:00:33.369Z,29.80
2018-10-17T13:01:33.355Z,30.02
2018-10-17T13:02:33.338Z,30.01
2018-10-17T13:03:33.322Z,29.86
2018-10-17T13:04:33.306Z,29.63
2018-10-17T13:05:33.293Z,29.79
2018-10-17T13:06:33.272Z,29.98